Underhill, Vermont
Current Conditions -  °F | °C
As of 9:54 AM on Saturday 25 Oct 2014 (Local Time) from KBTV Reporting Station
Few Clouds Few Clouds  
Wind Chill: 43°   Ceiling: Unl
Heat Index: 48°   Visibility: 10mi
Dew Point: 41°   Wind: 13mph
Humidity: 77%   Direction: 190°S
Pressure: 29.76"   Gusts: NA
Location:  44.53°N, 72.95°W
Report Text: KBTV 251354Z 19011KT 10SM FEW150 09/05 A2976 RMK AO2 SLP080 T00890050
Loading
Personal Weather Stations






























Interactive Weather Map
Tropical Storm Tracking
New forecast layout! Learn more

10-Day Weather Forecast

Advertisements
Track Severe Weather on mobile